createdAt,value
2023-12-30T00:00:49.351Z,24.83
2023-12-30T00:01:49.369Z,24.83
2023-12-30T00:02:49.335Z,24.83
2023-12-30T00:03:49.461Z,24.79
2023-12-30T00:04:49.413Z,24.86
2023-12-30T00:05:49.450Z,24.82
2023-12-30T00:06:49.502Z,24.81
2023-12-30T00:07:49.552Z,24.82
2023-12-30T00:08:49.535Z,24.81
2023-12-30T00:09:49.638Z,24.79
2023-12-30T00:10:49.667Z,24.78
2023-12-30T00:11:49.672Z,24.75
2023-12-30T00:12:49.728Z,24.81
2023-12-30T00:13:49.904Z,24.82
2023-12-30T00:14:49.785Z,24.82
2023-12-30T00:15:49.883Z,24.78
2023-12-30T00:16:49.907Z,24.83
2023-12-30T00:17:49.948Z,24.79
2023-12-30T00:18:50.052Z,24.81
2023-12-30T00:19:49.983Z,24.81
2023-12-30T00:20:50.050Z,24.80
2023-12-30T00:21:50.100Z,24.81
2023-12-30T00:22:50.085Z,24.81
2023-12-30T00:23:50.159Z,24.79
2023-12-30T00:24:50.241Z,24.81
2023-12-30T00:25:50.334Z,24.79
2023-12-30T00:26:50.297Z,24.79
2023-12-30T00:27:50.449Z,24.85
2023-12-30T00:28:50.375Z,24.75
2023-12-30T00:29:50.398Z,24.82
2023-12-30T00:30:50.597Z,24.85
2023-12-30T00:31:50.479Z,24.90
2023-12-30T00:32:50.639Z,24.85
2023-12-30T00:33:50.743Z,24.86
2023-12-30T00:34:50.752Z,24.87
2023-12-30T00:35:50.670Z,24.86
2023-12-30T00:36:50.731Z,24.80
2023-12-30T00:37:50.697Z,24.78
2023-12-30T00:38:50.784Z,24.78
2023-12-30T00:39:50.827Z,24.77
2023-12-30T00:40:50.876Z,24.83
2023-12-30T00:41:50.901Z,24.87
2023-12-30T00:42:51.021Z,24.88
2023-12-30T00:43:51.017Z,24.84
2023-12-30T00:44:51.072Z,24.86
2023-12-30T00:45:51.134Z,24.86
2023-12-30T00:46:51.138Z,24.87
2023-12-30T00:47:51.186Z,24.86
2023-12-30T00:48:57.137Z,24.84
2023-12-30T00:49:52.248Z,24.75
2023-12-30T00:50:51.260Z,24.83
2023-12-30T00:51:51.254Z,24.81
2023-12-30T00:52:51.214Z,24.83
2023-12-30T00:53:51.238Z,24.79
2023-12-30T00:54:51.770Z,24.83
2023-12-30T00:55:51.206Z,24.84
2023-12-30T00:56:51.211Z,24.84
2023-12-30T00:57:51.278Z,24.83
2023-12-30T00:58:51.268Z,24.83
2023-12-30T00:59:51.328Z,24.83
2023-12-30T01:00:51.440Z,24.88
2023-12-30T01:01:51.492Z,24.91
2023-12-30T01:02:51.383Z,24.86
2023-12-30T01:03:51.532Z,24.78
2023-12-30T01:04:51.576Z,24.80
2023-12-30T01:05:51.647Z,24.76
2023-12-30T01:06:51.704Z,24.79
2023-12-30T01:07:51.695Z,24.79
2023-12-30T01:08:51.691Z,24.80
2023-12-30T01:09:51.763Z,24.84
2023-12-30T01:10:51.746Z,24.86
2023-12-30T01:11:51.807Z,24.88
2023-12-30T01:12:51.901Z,24.84
2023-12-30T01:13:51.942Z,24.83
2023-12-30T01:14:51.984Z,24.82
2023-12-30T01:15:52.008Z,24.86
2023-12-30T01:16:52.107Z,24.83
2023-12-30T01:17:52.202Z,24.84
2023-12-30T01:18:52.234Z,24.79
2023-12-30T01:19:52.289Z,24.84
2023-12-30T01:20:52.224Z,24.78
2023-12-30T01:21:52.329Z,24.80
2023-12-30T01:22:52.295Z,24.79
2023-12-30T01:23:52.337Z,24.78
2023-12-30T01:24:52.554Z,24.79
2023-12-30T01:25:52.416Z,24.83
2023-12-30T01:26:52.473Z,24.80
2023-12-30T01:27:52.620Z,24.80
2023-12-30T01:28:52.540Z,24.77
2023-12-30T01:29:52.584Z,24.76
2023-12-30T01:30:52.765Z,24.82
2023-12-30T01:31:52.745Z,24.80
2023-12-30T01:32:52.798Z,24.82
2023-12-30T01:33:52.861Z,24.83
2023-12-30T01:34:53.041Z,24.88
2023-12-30T01:35:52.910Z,24.87
2023-12-30T01:36:53.020Z,24.86
2023-12-30T01:37:52.987Z,24.79
2023-12-30T01:38:53.022Z,24.83
2023-12-30T01:39:53.132Z,24.80
2023-12-30T01:40:53.141Z,24.84
2023-12-30T01:41:53.140Z,24.80
2023-12-30T01:42:53.220Z,24.91
2023-12-30T01:43:53.269Z,24.85
2023-12-30T01:44:53.274Z,24.83
2023-12-30T01:45:53.328Z,24.83
2023-12-30T01:46:53.376Z,24.85
2023-12-30T01:47:53.576Z,24.87
2023-12-30T01:48:53.784Z,24.88
2023-12-30T01:49:53.550Z,24.83
2023-12-30T01:50:53.571Z,24.86
2023-12-30T01:51:53.720Z,24.76
2023-12-30T01:52:53.653Z,24.74
2023-12-30T01:53:53.704Z,24.79
2023-12-30T01:54:53.761Z,24.76
2023-12-30T01:55:53.799Z,24.79
2023-12-30T01:56:53.895Z,24.80
2023-12-30T01:57:53.894Z,24.86
2023-12-30T01:58:53.945Z,24.83
2023-12-30T01:59:53.997Z,24.81
2023-12-30T02:00:54.087Z,24.87
2023-12-30T02:01:54.141Z,24.84
2023-12-30T02:02:54.142Z,24.88
2023-12-30T02:03:54.309Z,24.88
2023-12-30T02:04:54.222Z,24.84
2023-12-30T02:05:54.384Z,24.76
2023-12-30T02:06:54.415Z,24.83
2023-12-30T02:07:54.349Z,24.83
2023-12-30T02:08:54.498Z,24.81
2023-12-30T02:09:54.487Z,24.77
2023-12-30T02:10:54.512Z,24.81
2023-12-30T02:11:54.538Z,24.81
2023-12-30T02:12:54.649Z,24.75
2023-12-30T02:13:54.644Z,24.77
2023-12-30T02:14:54.709Z,24.79
2023-12-30T02:15:54.857Z,24.82
2023-12-30T02:16:54.855Z,24.79
2023-12-30T02:17:54.889Z,24.77
2023-12-30T02:18:55.049Z,24.75
2023-12-30T02:19:56.521Z,24.79
2023-12-30T02:20:55.060Z,24.83
2023-12-30T02:21:55.046Z,24.80
2023-12-30T02:22:55.059Z,24.80
2023-12-30T02:23:55.108Z,24.79
2023-12-30T02:24:55.203Z,24.81
2023-12-30T02:25:55.189Z,24.79
2023-12-30T02:26:55.241Z,24.84
2023-12-30T02:27:55.398Z,24.80
2023-12-30T02:28:55.311Z,24.79
2023-12-30T02:29:55.436Z,24.79
2023-12-30T02:30:55.648Z,24.80
2023-12-30T02:31:55.591Z,24.81
2023-12-30T02:32:55.563Z,24.79
2023-12-30T02:33:55.638Z,24.77
2023-12-30T02:34:55.713Z,24.73
2023-12-30T02:35:55.697Z,24.75
2023-12-30T02:36:55.854Z,24.75
2023-12-30T02:37:55.812Z,24.77
2023-12-30T02:38:55.829Z,24.76
2023-12-30T02:39:55.923Z,24.76
2023-12-30T02:40:55.965Z,24.80
2023-12-30T02:41:56.016Z,24.88
2023-12-30T02:42:56.101Z,24.78
2023-12-30T02:43:56.067Z,24.80
2023-12-30T02:44:56.141Z,24.81
2023-12-30T02:45:56.204Z,24.76
2023-12-30T02:46:56.263Z,24.77
2023-12-30T02:47:56.480Z,24.75
2023-12-30T02:48:56.391Z,24.73
2023-12-30T02:49:56.458Z,24.76
2023-12-30T02:50:56.413Z,24.77
2023-12-30T02:51:56.536Z,24.77
2023-12-30T02:52:56.534Z,24.76
2023-12-30T02:53:56.549Z,24.75
2023-12-30T02:54:56.634Z,24.76
2023-12-30T02:55:56.675Z,24.74
2023-12-30T02:56:56.730Z,24.77
2023-12-30T02:57:56.818Z,24.76
2023-12-30T02:58:56.792Z,24.82
2023-12-30T02:59:56.896Z,24.80
2023-12-30T03:00:56.974Z,24.77
2023-12-30T03:01:56.972Z,24.80
2023-12-30T03:02:57.048Z,24.77
2023-12-30T03:03:57.116Z,24.77
2023-12-30T03:04:57.154Z,24.76
2023-12-30T03:05:57.155Z,24.78
2023-12-30T03:06:57.220Z,24.76
2023-12-30T03:07:57.247Z,24.81
2023-12-30T03:08:57.338Z,24.80
2023-12-30T03:09:57.381Z,24.80
2023-12-30T03:10:57.439Z,24.80
2023-12-30T03:11:57.439Z,24.73
2023-12-30T03:12:57.524Z,24.72
2023-12-30T03:13:57.571Z,24.73
2023-12-30T03:14:57.579Z,24.79
2023-12-30T03:15:57.651Z,24.81
2023-12-30T03:16:57.714Z,24.75
2023-12-30T03:17:57.812Z,24.78
2023-12-30T03:18:57.917Z,24.75
2023-12-30T03:19:57.877Z,24.75
2023-12-30T03:20:57.855Z,24.77
2023-12-30T03:21:57.985Z,24.81
2023-12-30T03:22:57.994Z,24.79
2023-12-30T03:23:58.018Z,24.77
2023-12-30T03:24:58.063Z,24.75
2023-12-30T03:25:58.104Z,24.73
2023-12-30T03:26:58.225Z,24.73
2023-12-30T03:27:58.312Z,24.81
2023-12-30T03:28:58.214Z,24.79
2023-12-30T03:29:58.390Z,24.82
2023-12-30T03:30:58.434Z,24.78
2023-12-30T03:31:58.402Z,24.77
2023-12-30T03:32:58.528Z,24.80
2023-12-30T03:33:58.659Z,24.76
2023-12-30T03:34:58.603Z,24.73
2023-12-30T03:35:58.744Z,24.74
2023-12-30T03:36:58.650Z,24.73
2023-12-30T03:37:58.769Z,24.76
2023-12-30T03:38:58.763Z,24.81
2023-12-30T03:39:58.853Z,24.73
2023-12-30T03:40:59.011Z,24.73
2023-12-30T03:41:58.901Z,24.73
2023-12-30T03:42:59.107Z,24.80
2023-12-30T03:43:58.969Z,24.80
2023-12-30T03:44:59.018Z,24.79
2023-12-30T03:45:59.146Z,24.72
2023-12-30T03:46:59.126Z,24.73
2023-12-30T03:47:59.331Z,24.73
2023-12-30T03:48:59.345Z,24.78
2023-12-30T03:49:59.438Z,24.71
2023-12-30T03:50:59.393Z,24.68
2023-12-30T03:51:59.425Z,24.74
2023-12-30T03:52:59.749Z,24.77
2023-12-30T03:53:59.519Z,24.76
2023-12-30T03:54:59.593Z,24.76
2023-12-30T03:55:59.594Z,24.73
2023-12-30T03:56:59.589Z,24.72
2023-12-30T03:57:59.891Z,24.76
2023-12-30T03:58:59.649Z,24.72
2023-12-30T03:59:59.761Z,24.78
2023-12-30T04:00:59.883Z,24.77
2023-12-30T04:02:00.088Z,24.82
2023-12-30T04:03:00.175Z,24.78
2023-12-30T04:03:59.961Z,24.77
2023-12-30T04:05:00.308Z,24.81
2023-12-30T04:06:00.081Z,24.69
2023-12-30T04:07:00.184Z,24.73
2023-12-30T04:08:00.212Z,24.65
2023-12-30T04:09:00.606Z,24.67
2023-12-30T04:10:00.415Z,24.73
2023-12-30T04:11:00.322Z,24.72
2023-12-30T04:12:00.350Z,24.69
2023-12-30T04:13:00.659Z,24.72
2023-12-30T04:14:00.441Z,24.73
2023-12-30T04:15:00.954Z,24.76
2023-12-30T04:16:00.603Z,24.72
2023-12-30T04:17:00.596Z,24.77
2023-12-30T04:18:00.826Z,24.74
2023-12-30T04:19:00.869Z,24.74
2023-12-30T04:20:00.784Z,24.76
2023-12-30T04:21:00.854Z,24.72
2023-12-30T04:22:00.903Z,24.73
2023-12-30T04:23:01.459Z,24.73
2023-12-30T04:24:01.047Z,24.68
2023-12-30T04:25:01.166Z,24.68
2023-12-30T04:26:01.063Z,24.68
2023-12-30T04:27:01.071Z,24.69
2023-12-30T04:28:01.194Z,24.72
2023-12-30T04:29:01.204Z,24.76
2023-12-30T04:30:01.258Z,24.70
2023-12-30T04:31:01.485Z,24.76
2023-12-30T04:32:01.317Z,24.72
2023-12-30T04:33:01.786Z,24.82
2023-12-30T04:34:01.563Z,24.76
2023-12-30T04:35:01.550Z,24.74
2023-12-30T04:36:01.547Z,24.72
2023-12-30T04:37:01.631Z,24.64
2023-12-30T04:38:09.152Z,24.75
2023-12-30T04:39:09.117Z,24.72
2023-12-30T04:40:09.215Z,24.70
2023-12-30T04:41:09.236Z,24.73
2023-12-30T04:42:09.275Z,24.69
2023-12-30T04:43:09.368Z,24.68
2023-12-30T04:44:09.377Z,24.72
2023-12-30T04:45:09.469Z,24.80
2023-12-30T04:46:09.552Z,24.76
2023-12-30T04:47:09.548Z,24.69
2023-12-30T04:48:09.610Z,24.69
2023-12-30T04:49:09.692Z,24.68
2023-12-30T04:50:09.925Z,24.73
2023-12-30T04:51:09.759Z,24.70
2023-12-30T04:52:09.854Z,24.72
2023-12-30T04:53:09.857Z,24.72
2023-12-30T04:54:10.031Z,24.73
2023-12-30T04:55:10.033Z,24.76
2023-12-30T04:56:10.035Z,24.72
2023-12-30T04:57:10.070Z,24.74
2023-12-30T04:58:10.164Z,24.70
2023-12-30T04:59:10.172Z,24.70
2023-12-30T05:00:10.210Z,24.73
2023-12-30T05:01:10.378Z,24.73
2023-12-30T05:02:10.347Z,24.74
2023-12-30T05:03:10.452Z,24.76
2023-12-30T05:04:10.460Z,24.73
2023-12-30T05:05:10.472Z,24.70
2023-12-30T05:06:10.622Z,24.73
2023-12-30T05:07:10.644Z,24.72
2023-12-30T05:08:11.106Z,24.73
2023-12-30T05:09:10.695Z,24.65
2023-12-30T05:10:10.730Z,24.62
2023-12-30T05:11:10.764Z,24.69
2023-12-30T05:12:10.847Z,24.65
2023-12-30T05:13:10.922Z,24.66
2023-12-30T05:14:10.952Z,24.66
2023-12-30T05:15:11.018Z,24.69
2023-12-30T05:16:11.048Z,24.73
2023-12-30T05:17:11.105Z,24.72
2023-12-30T05:18:11.237Z,24.72
2023-12-30T05:19:11.277Z,24.66
2023-12-30T05:20:11.340Z,24.72
2023-12-30T05:21:11.372Z,24.70
2023-12-30T05:22:11.409Z,24.70
2023-12-30T05:23:11.402Z,24.73
2023-12-30T05:24:11.522Z,24.73
2023-12-30T05:25:11.642Z,24.67
2023-12-30T05:26:11.629Z,24.66
2023-12-30T05:27:11.696Z,24.69
2023-12-30T05:28:11.814Z,24.66
2023-12-30T05:29:11.787Z,24.74
2023-12-30T05:30:11.923Z,24.64
2023-12-30T05:31:12.079Z,24.69
2023-12-30T05:32:11.978Z,24.67
2023-12-30T05:33:12.111Z,24.63
2023-12-30T05:34:12.201Z,24.61
2023-12-30T05:35:12.217Z,24.61
2023-12-30T05:36:12.199Z,24.65
2023-12-30T05:37:12.230Z,24.63
2023-12-30T05:38:12.277Z,24.66
2023-12-30T05:39:12.373Z,24.61
2023-12-30T05:40:12.417Z,24.66
2023-12-30T05:41:12.438Z,24.63
2023-12-30T05:42:12.480Z,24.65
2023-12-30T05:43:12.619Z,24.67
2023-12-30T05:44:12.625Z,24.69
2023-12-30T05:45:12.714Z,24.67
2023-12-30T05:46:12.755Z,24.65
2023-12-30T05:47:12.858Z,24.62
2023-12-30T05:48:12.934Z,24.70
2023-12-30T05:49:12.972Z,24.61
2023-12-30T05:50:12.967Z,24.57
2023-12-30T05:51:12.989Z,24.70
2023-12-30T05:52:13.243Z,24.67
2023-12-30T05:53:13.145Z,24.66
2023-12-30T05:54:13.151Z,24.65
2023-12-30T05:55:13.317Z,24.65
2023-12-30T05:56:13.342Z,24.65
2023-12-30T05:57:13.338Z,24.59
2023-12-30T05:58:13.523Z,24.66
2023-12-30T05:59:13.461Z,24.65
2023-12-30T06:00:14.084Z,24.65
2023-12-30T06:01:13.699Z,24.63
2023-12-30T06:02:13.640Z,24.57
2023-12-30T06:03:13.740Z,24.59
2023-12-30T06:04:13.874Z,24.62
2023-12-30T06:05:13.830Z,24.63
2023-12-30T06:06:14.077Z,24.61
2023-12-30T06:07:13.901Z,24.57
2023-12-30T06:08:13.989Z,24.66
2023-12-30T06:09:14.020Z,24.63
2023-12-30T06:10:14.139Z,24.65
2023-12-30T06:11:14.185Z,24.65
2023-12-30T06:12:14.187Z,24.57
2023-12-30T06:13:14.279Z,24.62
2023-12-30T06:14:14.296Z,24.54
2023-12-30T06:15:14.359Z,24.57
2023-12-30T06:16:14.433Z,24.62
2023-12-30T06:17:14.487Z,24.56
2023-12-30T06:18:14.621Z,24.62
2023-12-30T06:19:15.871Z,24.54
2023-12-30T06:20:14.596Z,24.65
2023-12-30T06:21:14.620Z,24.59
2023-12-30T06:22:14.608Z,24.59
2023-12-30T06:23:14.798Z,24.62
2023-12-30T06:24:14.605Z,24.55
2023-12-30T06:25:14.669Z,24.56
2023-12-30T06:26:14.569Z,24.51
2023-12-30T06:27:14.620Z,24.54
2023-12-30T06:28:14.640Z,24.63
2023-12-30T06:29:14.673Z,24.61
2023-12-30T06:30:14.642Z,24.49
2023-12-30T06:31:14.662Z,24.49
2023-12-30T06:32:14.649Z,24.51
2023-12-30T06:33:14.649Z,24.51
2023-12-30T06:34:14.630Z,24.37
2023-12-30T06:35:14.657Z,24.47
2023-12-30T06:36:14.620Z,24.55
2023-12-30T06:37:14.600Z,24.53
2023-12-30T06:38:14.614Z,24.54
2023-12-30T06:39:14.697Z,24.58
2023-12-30T06:40:14.713Z,24.58
2023-12-30T06:41:14.625Z,24.58
2023-12-30T06:42:14.661Z,24.54
2023-12-30T06:43:14.627Z,24.50
2023-12-30T06:44:14.599Z,24.49
2023-12-30T06:45:14.613Z,24.57
2023-12-30T06:46:14.701Z,24.49
2023-12-30T06:47:14.595Z,24.50
2023-12-30T06:48:14.686Z,24.54
2023-12-30T06:49:14.837Z,24.47
2023-12-30T06:50:14.594Z,24.40
2023-12-30T06:51:14.654Z,24.49
2023-12-30T06:52:14.682Z,24.51
2023-12-30T06:53:14.664Z,24.50
2023-12-30T06:54:14.619Z,24.50
2023-12-30T06:55:20.668Z,24.43
2023-12-30T06:56:15.639Z,24.44
2023-12-30T06:57:14.633Z,24.49
2023-12-30T06:58:14.663Z,24.44
2023-12-30T06:59:15.858Z,24.54
2023-12-30T07:00:14.610Z,24.53
2023-12-30T07:01:14.776Z,24.45
2023-12-30T07:02:14.628Z,24.40
2023-12-30T07:03:14.700Z,24.43
2023-12-30T07:04:14.870Z,24.35
2023-12-30T07:05:14.840Z,24.43
2023-12-30T07:06:14.804Z,24.35
2023-12-30T07:07:14.907Z,24.43
2023-12-30T07:08:14.978Z,24.52
2023-12-30T07:09:15.022Z,24.49
2023-12-30T07:10:15.190Z,24.50
2023-12-30T07:11:15.131Z,24.46
2023-12-30T07:12:15.266Z,24.37
2023-12-30T07:13:15.399Z,24.45
2023-12-30T07:14:15.452Z,24.42
2023-12-30T07:15:15.504Z,24.40
2023-12-30T07:16:15.553Z,24.47
2023-12-30T07:17:15.594Z,24.43
2023-12-30T07:18:15.725Z,24.51
2023-12-30T07:19:15.852Z,24.50
2023-12-30T07:20:15.742Z,24.51
2023-12-30T07:21:17.629Z,24.46
2023-12-30T07:22:15.964Z,24.50
2023-12-30T07:23:15.942Z,24.51
2023-12-30T07:24:15.993Z,24.39
2023-12-30T07:25:16.098Z,24.39
2023-12-30T07:26:16.118Z,24.42
2023-12-30T07:27:16.244Z,24.47
2023-12-30T07:28:16.297Z,24.46
2023-12-30T07:29:16.347Z,24.43
2023-12-30T07:30:16.483Z,24.34
2023-12-30T07:31:16.637Z,24.37
2023-12-30T07:32:16.506Z,24.48
2023-12-30T07:33:16.619Z,24.52
2023-12-30T07:34:16.723Z,24.46
2023-12-30T07:35:16.726Z,24.42
2023-12-30T07:36:16.802Z,24.46
2023-12-30T07:37:16.956Z,24.43
2023-12-30T07:38:16.922Z,24.46
2023-12-30T07:39:16.982Z,24.47
2023-12-30T07:40:17.197Z,24.38
2023-12-30T07:41:17.153Z,24.42
2023-12-30T07:42:18.093Z,24.43
2023-12-30T07:43:17.264Z,24.46
2023-12-30T07:44:17.312Z,24.40
2023-12-30T07:45:17.453Z,24.47
2023-12-30T07:46:17.661Z,24.38
2023-12-30T07:47:17.537Z,24.39
2023-12-30T07:48:17.621Z,24.34
2023-12-30T07:49:17.743Z,24.37
2023-12-30T07:50:17.731Z,24.43
2023-12-30T07:51:17.812Z,24.42
2023-12-30T07:52:18.104Z,24.35
2023-12-30T07:53:17.933Z,24.42
2023-12-30T07:54:17.998Z,24.47
2023-12-30T07:55:18.096Z,24.40
2023-12-30T07:56:18.111Z,24.40
2023-12-30T07:57:18.181Z,24.39
2023-12-30T07:58:19.157Z,24.40
2023-12-30T07:59:18.378Z,24.39
2023-12-30T08:00:18.482Z,24.42
2023-12-30T08:01:18.630Z,24.38
2023-12-30T08:02:18.574Z,24.38
2023-12-30T08:03:18.600Z,24.46
2023-12-30T08:04:18.665Z,24.40
2023-12-30T08:05:18.704Z,24.35
2023-12-30T08:06:18.782Z,24.40
2023-12-30T08:07:18.844Z,24.44
2023-12-30T08:08:18.926Z,24.38
2023-12-30T08:09:18.965Z,24.44
2023-12-30T08:10:19.092Z,24.35
2023-12-30T08:11:19.144Z,24.42
2023-12-30T08:12:19.240Z,24.40
2023-12-30T08:13:19.266Z,24.48
2023-12-30T08:14:19.310Z,24.34
2023-12-30T08:15:19.372Z,24.34
2023-12-30T08:16:19.510Z,24.30
2023-12-30T08:17:19.543Z,24.34
2023-12-30T08:18:19.626Z,24.47
2023-12-30T08:19:19.671Z,24.40
2023-12-30T08:20:19.696Z,24.38
2023-12-30T08:21:19.768Z,24.38
2023-12-30T08:22:19.894Z,24.33
2023-12-30T08:23:19.947Z,24.27
2023-12-30T08:24:20.003Z,24.43
2023-12-30T08:25:20.067Z,24.34
2023-12-30T08:26:20.110Z,24.43
2023-12-30T08:27:20.163Z,24.47
2023-12-30T08:28:20.285Z,24.35
2023-12-30T08:29:20.336Z,24.40
2023-12-30T08:30:20.429Z,24.39
2023-12-30T08:31:20.504Z,24.47
2023-12-30T08:32:20.506Z,24.40
2023-12-30T08:33:20.654Z,24.39
2023-12-30T08:34:20.728Z,24.36
2023-12-30T08:35:20.671Z,24.30
2023-12-30T08:36:20.790Z,24.44
2023-12-30T08:37:20.893Z,24.42
2023-12-30T08:38:20.906Z,24.44
2023-12-30T08:39:20.984Z,24.44
2023-12-30T08:40:21.043Z,24.42
2023-12-30T08:41:21.068Z,24.40
2023-12-30T08:42:21.198Z,24.47
2023-12-30T08:43:21.194Z,24.46
2023-12-30T08:44:21.322Z,24.40
2023-12-30T08:45:21.362Z,24.46
2023-12-30T08:46:21.570Z,24.51
2023-12-30T08:47:21.581Z,24.55
2023-12-30T08:48:21.626Z,24.60
2023-12-30T08:49:21.740Z,24.58
2023-12-30T08:50:21.703Z,24.59
2023-12-30T08:51:21.725Z,24.62
2023-12-30T08:52:21.814Z,24.63
2023-12-30T08:53:21.855Z,24.64
2023-12-30T08:54:21.911Z,24.64
2023-12-30T08:55:22.056Z,24.63
2023-12-30T08:56:22.058Z,24.63
2023-12-30T08:57:22.110Z,24.60
2023-12-30T08:58:22.197Z,24.62
2023-12-30T08:59:22.219Z,24.66
2023-12-30T09:00:22.282Z,24.62
2023-12-30T09:01:22.455Z,24.62
2023-12-30T09:02:22.410Z,24.67
2023-12-30T09:03:22.518Z,24.61
2023-12-30T09:04:22.610Z,24.59
2023-12-30T09:05:22.613Z,24.62
2023-12-30T09:06:22.724Z,24.62
2023-12-30T09:07:22.767Z,24.62
2023-12-30T09:08:22.766Z,24.63
2023-12-30T09:09:22.805Z,24.62
2023-12-30T09:10:22.932Z,24.64
2023-12-30T09:11:22.998Z,24.63
2023-12-30T09:12:23.039Z,24.70
2023-12-30T09:13:23.150Z,24.68
2023-12-30T09:14:23.195Z,24.64
2023-12-30T09:15:23.211Z,24.66
2023-12-30T09:16:23.348Z,24.70
2023-12-30T09:17:23.406Z,24.64
2023-12-30T09:18:23.494Z,24.59
2023-12-30T09:19:23.587Z,24.63
2023-12-30T09:20:23.593Z,24.71
2023-12-30T09:21:23.616Z,24.68
2023-12-30T09:22:23.684Z,24.73
2023-12-30T09:23:23.728Z,24.74
2023-12-30T09:24:23.790Z,24.74
2023-12-30T09:25:23.876Z,24.74
2023-12-30T09:26:23.897Z,24.74
2023-12-30T09:27:23.982Z,24.74
2023-12-30T09:28:24.049Z,24.69
2023-12-30T09:29:24.084Z,24.79
2023-12-30T09:30:24.208Z,24.79
2023-12-30T09:31:24.207Z,24.78
2023-12-30T09:32:24.250Z,24.79
2023-12-30T09:33:24.353Z,24.79
2023-12-30T09:34:34.055Z,24.72
2023-12-30T09:35:25.516Z,24.81
2023-12-30T09:36:24.388Z,24.66
2023-12-30T09:37:24.423Z,24.84
2023-12-30T09:38:25.714Z,24.72
2023-12-30T09:39:24.458Z,24.60
2023-12-30T09:40:24.435Z,24.71
2023-12-30T09:41:24.382Z,24.88
2023-12-30T09:42:24.432Z,24.94
2023-12-30T09:43:24.462Z,24.81
2023-12-30T09:44:24.388Z,24.64
2023-12-30T09:45:24.429Z,24.55
2023-12-30T09:46:24.449Z,24.54
2023-12-30T09:47:24.583Z,24.60
2023-12-30T09:48:24.696Z,24.50
2023-12-30T09:49:24.648Z,24.43
2023-12-30T09:50:24.690Z,24.47
2023-12-30T09:51:24.696Z,24.62
2023-12-30T09:52:24.747Z,24.46
2023-12-30T09:53:24.761Z,24.49
2023-12-30T09:54:31.518Z,24.51
2023-12-30T09:55:25.873Z,24.50
2023-12-30T09:56:24.851Z,24.46
2023-12-30T09:57:24.778Z,24.54
2023-12-30T09:58:24.877Z,24.35
2023-12-30T09:59:24.798Z,24.34
2023-12-30T10:00:24.804Z,24.44
2023-12-30T10:01:24.846Z,24.42
2023-12-30T10:02:24.820Z,24.51
2023-12-30T10:03:24.850Z,24.57
2023-12-30T10:04:24.884Z,24.45
2023-12-30T10:05:24.885Z,24.43
2023-12-30T10:06:24.806Z,24.39
2023-12-30T10:07:24.853Z,24.32
2023-12-30T10:08:24.799Z,24.36
2023-12-30T10:09:24.905Z,24.43
2023-12-30T10:10:24.921Z,24.44
2023-12-30T10:11:24.958Z,24.46
2023-12-30T10:12:24.932Z,24.49
2023-12-30T10:13:24.956Z,24.44
2023-12-30T10:14:24.994Z,24.42
2023-12-30T10:15:25.004Z,24.41
2023-12-30T10:16:25.091Z,24.42
2023-12-30T10:17:25.070Z,24.43
2023-12-30T10:18:25.196Z,24.42
2023-12-30T10:19:25.172Z,24.42
2023-12-30T10:20:25.134Z,24.46
2023-12-30T10:21:25.136Z,24.34
2023-12-30T10:22:25.205Z,24.38
2023-12-30T10:23:25.215Z,24.45
2023-12-30T10:24:25.215Z,24.42
2023-12-30T10:25:25.277Z,24.65
2023-12-30T10:26:25.290Z,24.57
2023-12-30T10:27:25.295Z,24.51
2023-12-30T10:28:25.312Z,24.60
2023-12-30T10:29:25.345Z,24.67
2023-12-30T10:30:25.393Z,24.81
2023-12-30T10:31:25.422Z,24.74
2023-12-30T10:32:25.435Z,24.85
2023-12-30T10:33:25.491Z,24.67
2023-12-30T10:34:25.487Z,24.67
2023-12-30T10:35:25.448Z,24.88
2023-12-30T10:36:25.467Z,24.86
2023-12-30T10:37:25.482Z,24.87
2023-12-30T10:38:25.469Z,24.95
2023-12-30T10:39:25.511Z,24.93
2023-12-30T10:40:25.508Z,24.90
2023-12-30T10:41:25.596Z,24.92
2023-12-30T10:42:25.618Z,24.87
2023-12-30T10:43:25.588Z,24.90
2023-12-30T10:44:25.672Z,24.92
2023-12-30T10:45:25.619Z,24.88
2023-12-30T10:46:25.656Z,24.90
2023-12-30T10:47:25.738Z,24.96
2023-12-30T10:48:25.689Z,24.95
2023-12-30T10:49:25.802Z,24.98
2023-12-30T10:50:25.759Z,24.96
2023-12-30T10:51:25.716Z,24.90
2023-12-30T10:52:25.825Z,24.92
2023-12-30T10:53:25.728Z,24.90
2023-12-30T10:54:25.782Z,24.88
2023-12-30T10:55:25.844Z,24.87
2023-12-30T10:56:25.815Z,24.92
2023-12-30T10:57:25.806Z,24.95
2023-12-30T10:58:26.000Z,24.95
2023-12-30T10:59:25.809Z,24.93
2023-12-30T11:00:25.838Z,24.99
2023-12-30T11:01:26.006Z,25.00
2023-12-30T11:02:25.831Z,24.95
2023-12-30T11:03:26.080Z,24.95
2023-12-30T11:04:25.922Z,24.91
2023-12-30T11:05:26.035Z,24.91
2023-12-30T11:06:26.087Z,24.96
2023-12-30T11:07:26.022Z,24.97
2023-12-30T11:08:25.979Z,24.94
2023-12-30T11:09:25.914Z,24.95
2023-12-30T11:10:26.121Z,24.95
2023-12-30T11:11:26.001Z,24.89
2023-12-30T11:12:25.942Z,24.99
2023-12-30T11:13:26.053Z,24.89
2023-12-30T11:14:25.976Z,24.96
2023-12-30T11:15:25.968Z,25.02
2023-12-30T11:16:26.024Z,24.93
2023-12-30T11:17:26.175Z,24.89
2023-12-30T11:18:26.223Z,24.90
2023-12-30T11:19:26.154Z,24.84
2023-12-30T11:20:26.002Z,24.94
2023-12-30T11:21:26.021Z,24.98
2023-12-30T11:22:26.049Z,24.87
2023-12-30T11:23:26.015Z,24.88
2023-12-30T11:24:26.081Z,24.86
2023-12-30T11:25:26.043Z,24.96
2023-12-30T11:26:26.033Z,25.06
2023-12-30T11:27:26.058Z,25.00
2023-12-30T11:28:26.310Z,25.00
2023-12-30T11:29:26.094Z,25.00
2023-12-30T11:30:26.186Z,24.83
2023-12-30T11:31:26.100Z,24.97
2023-12-30T11:32:26.127Z,25.01
2023-12-30T11:33:26.159Z,24.81
2023-12-30T11:34:26.466Z,24.84
2023-12-30T11:35:26.054Z,25.00
2023-12-30T11:36:26.065Z,24.85
2023-12-30T11:37:26.146Z,24.84
2023-12-30T11:38:26.129Z,24.84
2023-12-30T11:39:26.151Z,24.78
2023-12-30T11:40:26.186Z,24.71
2023-12-30T11:41:26.198Z,24.87
2023-12-30T11:43:08.916Z,24.86
2023-12-30T11:44:08.919Z,24.73
2023-12-30T11:45:08.907Z,24.71
2023-12-30T11:46:08.965Z,24.61
2023-12-30T11:47:08.878Z,24.64
2023-12-30T11:48:09.074Z,24.40
2023-12-30T11:49:09.062Z,24.42
2023-12-30T11:50:11.376Z,24.38
2023-12-30T11:51:08.862Z,24.59
2023-12-30T11:52:08.931Z,24.42
2023-12-30T11:53:09.021Z,24.70
2023-12-30T11:54:08.883Z,24.44
2023-12-30T11:55:08.869Z,24.40
2023-12-30T11:56:09.902Z,24.61
2023-12-30T11:57:08.902Z,24.40
2023-12-30T11:58:08.949Z,24.25
2023-12-30T11:59:08.972Z,24.25
2023-12-30T12:00:08.971Z,24.37
2023-12-30T12:01:09.005Z,24.50
2023-12-30T12:02:09.146Z,24.33
2023-12-30T12:03:08.891Z,24.38
2023-12-30T12:04:09.052Z,24.49
2023-12-30T12:05:08.974Z,24.55
2023-12-30T12:06:08.905Z,24.49
2023-12-30T12:07:08.926Z,24.30
2023-12-30T12:08:08.834Z,24.48
2023-12-30T12:09:08.878Z,24.48
2023-12-30T12:10:09.018Z,24.43
2023-12-30T12:11:08.856Z,24.50
2023-12-30T12:12:08.900Z,24.44
2023-12-30T12:13:08.867Z,24.28
2023-12-30T12:14:08.877Z,24.34
2023-12-30T12:15:08.882Z,24.47
2023-12-30T12:16:08.974Z,24.70
2023-12-30T12:17:08.977Z,24.55
2023-12-30T12:18:09.247Z,24.40
2023-12-30T12:19:09.168Z,24.50
2023-12-30T12:20:09.300Z,25.04
2023-12-30T12:21:09.262Z,25.35
2023-12-30T12:22:09.424Z,25.59
2023-12-30T12:23:09.520Z,25.69
2023-12-30T12:24:09.439Z,25.95
2023-12-30T12:25:09.554Z,26.15
2023-12-30T12:26:09.580Z,26.36
2023-12-30T12:27:09.883Z,26.25
2023-12-30T12:28:09.798Z,26.45
2023-12-30T12:29:10.048Z,26.75
2023-12-30T12:30:09.985Z,27.69
2023-12-30T12:31:10.034Z,27.63
2023-12-30T12:32:10.056Z,27.38
2023-12-30T12:33:10.267Z,27.75
2023-12-30T12:34:10.297Z,27.30
2023-12-30T12:35:10.331Z,27.88
2023-12-30T12:36:10.286Z,28.27
2023-12-30T12:37:10.366Z,28.08
2023-12-30T12:38:10.395Z,28.16
2023-12-30T12:39:11.755Z,28.47
2023-12-30T12:40:10.748Z,29.20
2023-12-30T12:41:10.622Z,29.37
2023-12-30T12:42:18.816Z,28.48
2023-12-30T12:43:11.711Z,28.59
2023-12-30T12:44:10.692Z,29.15
2023-12-30T12:45:10.653Z,29.41
2023-12-30T12:46:10.714Z,30.01
2023-12-30T12:47:10.696Z,30.16
2023-12-30T12:48:10.912Z,29.99
2023-12-30T12:49:10.868Z,30.44
2023-12-30T12:50:10.765Z,30.85
2023-12-30T12:51:10.704Z,30.69
2023-12-30T12:52:10.764Z,30.57
2023-12-30T12:53:10.781Z,30.13
2023-12-30T12:54:10.792Z,30.08